createdAt,value
2022-10-16T00:03:51.749Z,14.32
2022-10-16T00:07:53.169Z,14.35
2022-10-16T00:16:01.765Z,14.40
2022-10-16T00:20:04.153Z,14.31
2022-10-16T00:24:09.308Z,14.32
2022-10-16T00:28:10.725Z,14.26
2022-10-16T00:32:12.101Z,14.51
2022-10-16T00:36:18.176Z,14.41
2022-10-16T00:40:19.550Z,14.38
2022-10-16T00:44:44.887Z,14.33
2022-10-16T00:48:53.402Z,14.42
2022-10-16T00:52:56.072Z,14.36
2022-10-16T00:57:00.964Z,14.34
2022-10-16T01:01:02.485Z,14.30
2022-10-16T01:05:05.199Z,14.38
2022-10-16T01:09:21.305Z,14.34
2022-10-16T01:13:28.735Z,14.30
2022-10-16T01:17:40.275Z,14.17
2022-10-16T01:21:45.745Z,14.22
2022-10-16T01:25:57.537Z,14.21
2022-10-16T01:30:17.880Z,14.13
2022-10-16T01:34:26.069Z,14.12
2022-10-16T01:38:37.368Z,14.00
2022-10-16T01:42:43.917Z,14.00
2022-10-16T01:46:49.365Z,14.02
2022-10-16T01:50:57.953Z,14.13
2022-10-16T01:55:01.994Z,14.16
2022-10-16T01:59:08.196Z,14.11
2022-10-16T02:03:11.877Z,14.05
2022-10-16T02:07:13.651Z,14.15
2022-10-16T02:11:15.061Z,14.20
2022-10-16T02:15:16.455Z,14.19
2022-10-16T02:19:22.678Z,14.17
2022-10-16T02:23:51.332Z,14.24
2022-10-16T02:27:56.369Z,14.29
2022-10-16T02:32:03.481Z,14.36
2022-10-16T02:36:05.650Z,14.24
2022-10-16T02:40:08.238Z,14.27
2022-10-16T02:44:09.634Z,14.33
2022-10-16T02:48:11.028Z,14.31
2022-10-16T02:52:12.424Z,14.20
2022-10-16T02:56:13.938Z,14.05
2022-10-16T03:00:17.560Z,14.23
2022-10-16T03:04:18.973Z,14.22
2022-10-16T03:08:24.433Z,14.17
2022-10-16T03:12:25.809Z,14.21
2022-10-16T03:16:27.208Z,14.12
2022-10-16T03:20:28.580Z,14.12
2022-10-16T03:24:29.990Z,14.11
2022-10-16T03:28:31.425Z,14.07
2022-10-16T03:32:33.003Z,14.05
2022-10-16T03:36:34.500Z,13.90
2022-10-16T03:40:35.910Z,13.76
2022-10-16T03:44:37.328Z,13.84
2022-10-16T03:48:38.691Z,13.90
2022-10-16T03:52:40.050Z,13.74
2022-10-16T03:56:41.425Z,13.67
2022-10-16T04:00:43.989Z,13.49
2022-10-16T04:04:45.508Z,13.42
2022-10-16T04:08:46.969Z,13.42
2022-10-16T04:12:48.416Z,13.30
2022-10-16T04:16:49.846Z,13.38
2022-10-16T04:20:51.203Z,13.47
2022-10-16T04:24:52.598Z,13.43
2022-10-16T04:28:54.926Z,13.51
2022-10-16T04:32:56.430Z,13.55
2022-10-16T04:36:57.872Z,13.59
2022-10-16T04:40:59.395Z,13.48
2022-10-16T04:45:00.796Z,13.39
2022-10-16T04:49:02.302Z,13.31
2022-10-16T04:53:03.763Z,13.29
2022-10-16T04:57:05.927Z,13.25
2022-10-16T05:01:07.466Z,13.07
2022-10-16T05:05:09.086Z,12.77
2022-10-16T05:09:11.150Z,12.89
2022-10-16T05:13:12.915Z,12.97
2022-10-16T05:17:14.381Z,12.93
2022-10-16T05:21:15.766Z,12.96
2022-10-16T05:25:17.254Z,12.98
2022-10-16T05:29:18.650Z,12.83
2022-10-16T05:33:25.476Z,12.89
2022-10-16T05:37:28.837Z,12.88
2022-10-16T05:41:30.508Z,12.85
2022-10-16T05:45:31.968Z,12.89
2022-10-16T05:49:35.692Z,12.74
2022-10-16T05:53:40.779Z,12.94
2022-10-16T05:57:42.317Z,12.94
2022-10-16T06:01:43.702Z,13.02
2022-10-16T06:05:45.064Z,12.94
2022-10-16T06:09:50.686Z,13.03
2022-10-16T06:13:53.381Z,13.23
2022-10-16T06:17:54.740Z,13.32
2022-10-16T06:21:56.226Z,13.26
2022-10-16T06:26:05.983Z,13.30
2022-10-16T06:30:08.274Z,13.55
2022-10-16T06:34:11.677Z,13.59
2022-10-16T06:38:13.037Z,13.53
2022-10-16T06:42:14.408Z,13.53
2022-10-16T06:46:18.924Z,13.49
2022-10-16T06:50:20.421Z,13.76
2022-10-16T06:54:21.799Z,13.66
2022-10-16T06:58:24.087Z,13.85
2022-10-16T07:02:25.872Z,13.91
2022-10-16T07:06:31.103Z,13.98
2022-10-16T07:10:33.362Z,14.14
2022-10-16T07:14:34.722Z,14.33
2022-10-16T07:18:37.628Z,14.46
2022-10-16T07:22:39.182Z,14.68
2022-10-16T07:26:41.456Z,14.76
2022-10-16T07:30:42.850Z,14.53
2022-10-16T07:34:44.283Z,14.79
2022-10-16T07:38:46.721Z,15.03
2022-10-16T07:42:48.176Z,14.80
2022-10-16T07:46:49.614Z,15.05
2022-10-16T07:50:51.150Z,14.98
2022-10-16T07:54:52.582Z,15.00
2022-10-16T07:58:54.132Z,15.05
2022-10-16T08:02:55.598Z,14.96
2022-10-16T08:06:57.092Z,15.04
2022-10-16T08:10:58.550Z,15.15
2022-10-16T08:15:00.052Z,15.29
2022-10-16T08:19:01.462Z,15.58
2022-10-16T08:23:03.233Z,15.79
2022-10-16T08:27:04.936Z,16.08
2022-10-16T08:31:15.131Z,16.22
2022-10-16T08:35:17.413Z,16.60
2022-10-16T08:39:18.770Z,16.49
2022-10-16T08:43:32.255Z,16.54
2022-10-16T08:47:49.642Z,16.55
2022-10-16T08:51:51.969Z,16.51
2022-10-16T08:55:54.625Z,16.39
2022-10-16T09:00:01.413Z,16.48
2022-10-16T09:04:24.681Z,16.45
2022-10-16T09:08:26.070Z,16.38
2022-10-16T09:12:49.191Z,17.11
2022-10-16T09:17:01.703Z,17.48
2022-10-16T09:21:18.576Z,17.11
2022-10-16T09:25:22.849Z,16.73
2022-10-16T09:29:26.891Z,16.49
2022-10-16T09:33:36.619Z,16.76
2022-10-16T09:37:38.152Z,17.42
2022-10-16T09:41:45.168Z,17.42
2022-10-16T09:45:57.923Z,17.36
2022-10-16T09:50:03.300Z,17.48
2022-10-16T09:54:10.418Z,17.34
2022-10-16T09:58:14.334Z,16.91
2022-10-16T10:02:18.885Z,17.30
2022-10-16T10:06:25.771Z,17.63
2022-10-16T10:10:32.906Z,17.94
2022-10-16T10:14:46.294Z,17.51
2022-10-16T10:18:47.757Z,17.65
2022-10-16T10:22:49.211Z,17.77
2022-10-16T10:27:26.918Z,17.91
2022-10-16T10:31:43.024Z,17.90
2022-10-16T10:35:55.207Z,17.65
2022-10-16T10:40:18.629Z,17.81
2022-10-16T10:44:31.570Z,18.35
2022-10-16T10:48:59.184Z,18.30
2022-10-16T10:53:25.647Z,18.42
2022-10-16T10:57:30.913Z,19.09
2022-10-16T11:01:55.610Z,18.75
2022-10-16T11:06:08.300Z,18.72
2022-10-16T11:10:22.554Z,18.39
2022-10-16T11:14:32.824Z,19.32
2022-10-16T11:18:49.801Z,19.29
2022-10-16T11:22:57.562Z,20.19
2022-10-16T11:27:05.328Z,20.21
2022-10-16T11:31:10.181Z,19.42
2022-10-16T11:35:23.478Z,19.09
2022-10-16T11:39:29.920Z,19.18
2022-10-16T11:43:43.120Z,18.60
2022-10-16T11:47:59.251Z,19.11
2022-10-16T11:52:24.135Z,19.70
2022-10-16T11:56:26.141Z,19.58
2022-10-16T12:00:45.726Z,19.93
2022-10-16T12:04:51.634Z,19.29
2022-10-16T12:08:54.459Z,19.30
2022-10-16T12:12:57.496Z,19.20
2022-10-16T12:17:01.764Z,18.91
2022-10-16T12:21:08.006Z,19.04
2022-10-16T12:25:31.045Z,19.60
2022-10-16T12:29:39.831Z,19.30
2022-10-16T12:33:43.893Z,19.85
2022-10-16T12:37:45.838Z,20.36
2022-10-16T12:41:49.339Z,20.41
2022-10-16T12:46:00.803Z,19.76
2022-10-16T12:50:10.397Z,20.76
2022-10-16T12:54:19.638Z,20.84
2022-10-16T12:58:39.980Z,20.38
2022-10-16T13:03:02.298Z,20.48
2022-10-16T13:07:36.744Z,19.76
2022-10-16T13:11:56.281Z,19.61
2022-10-16T13:16:09.805Z,19.87
2022-10-16T13:20:29.469Z,19.61
2022-10-16T13:24:50.497Z,19.82
2022-10-16T13:28:54.027Z,19.55
2022-10-16T13:33:03.163Z,19.24
2022-10-16T13:37:17.487Z,19.51
2022-10-16T13:41:19.367Z,20.30
2022-10-16T13:45:27.826Z,20.81
2022-10-16T13:49:29.537Z,21.10
2022-10-16T13:53:34.971Z,21.61
2022-10-16T13:57:36.618Z,21.52
2022-10-16T14:01:43.746Z,22.67
2022-10-16T14:05:51.713Z,21.73
2022-10-16T14:09:54.624Z,21.57
2022-10-16T14:13:56.538Z,20.87
2022-10-16T14:17:58.925Z,21.21
2022-10-16T14:22:02.970Z,20.04
2022-10-16T14:26:10.113Z,20.17
2022-10-16T14:30:18.140Z,21.36
2022-10-16T14:34:36.596Z,21.28
2022-10-16T14:38:41.806Z,21.58
2022-10-16T14:42:45.593Z,20.57
2022-10-16T14:46:47.940Z,21.08
2022-10-16T14:50:49.355Z,20.66
2022-10-16T14:54:51.752Z,21.45
2022-10-16T14:58:53.930Z,20.52
2022-10-16T15:02:55.463Z,20.74
2022-10-16T15:06:56.947Z,19.99
2022-10-16T15:10:58.423Z,19.53
2022-10-16T15:14:59.952Z,19.60
2022-10-16T15:19:01.380Z,19.27
2022-10-16T15:23:13.854Z,19.41
2022-10-16T15:27:15.342Z,19.63
2022-10-16T15:31:16.783Z,18.95
2022-10-16T15:35:18.206Z,19.07
2022-10-16T15:39:21.010Z,18.78
2022-10-16T15:43:22.842Z,18.69
2022-10-16T15:47:24.377Z,18.71
2022-10-16T15:51:29.871Z,18.38
2022-10-16T15:55:31.382Z,18.27
2022-10-16T15:59:32.797Z,18.22
2022-10-16T16:03:34.413Z,18.35
2022-10-16T16:07:40.193Z,18.31
2022-10-16T16:11:42.134Z,17.69
2022-10-16T16:15:43.636Z,17.88
2022-10-16T16:19:46.991Z,17.88
2022-10-16T16:23:48.405Z,17.84
2022-10-16T16:27:49.849Z,17.65
2022-10-16T16:31:51.387Z,17.40
2022-10-16T16:35:57.463Z,17.19
2022-10-16T16:40:01.881Z,16.99
2022-10-16T16:44:09.636Z,16.57
2022-10-16T16:48:11.077Z,16.47
2022-10-16T16:52:12.647Z,16.49
2022-10-16T16:56:14.285Z,16.00
2022-10-16T17:00:16.076Z,15.89
2022-10-16T17:04:17.715Z,15.64
2022-10-16T17:08:19.329Z,15.56
2022-10-16T17:12:20.918Z,15.46
2022-10-16T17:16:28.098Z,15.21
2022-10-16T17:20:29.509Z,15.30
2022-10-16T17:24:30.958Z,15.17
2022-10-16T17:28:32.651Z,15.07
2022-10-16T17:32:34.650Z,14.88
2022-10-16T17:36:38.396Z,14.62
2022-10-16T17:40:40.598Z,14.47
2022-10-16T17:44:42.063Z,14.59
2022-10-16T17:48:45.817Z,14.55
2022-10-16T17:52:47.219Z,14.49
2022-10-16T17:56:48.920Z,14.31
2022-10-16T18:00:50.379Z,14.05
2022-10-16T18:04:52.017Z,14.06
2022-10-16T18:08:56.622Z,13.40
2022-10-16T18:12:58.115Z,13.63
2022-10-16T18:16:59.647Z,13.70
2022-10-16T18:21:02.911Z,13.67
2022-10-16T18:25:06.099Z,13.51
2022-10-16T18:29:08.226Z,13.60
2022-10-16T18:33:09.749Z,13.35
2022-10-16T18:37:12.545Z,13.44
2022-10-16T18:41:14.189Z,13.35
2022-10-16T18:45:16.287Z,13.26
2022-10-16T18:49:18.181Z,13.19
2022-10-16T18:53:20.471Z,12.95
2022-10-16T18:57:22.496Z,13.04
2022-10-16T19:01:25.218Z,13.08
2022-10-16T19:05:26.774Z,12.97
2022-10-16T19:09:28.597Z,12.85
2022-10-16T19:13:30.509Z,12.75
2022-10-16T19:17:32.342Z,12.74
2022-10-16T19:21:37.381Z,12.67
2022-10-16T19:25:40.018Z,12.69
2022-10-16T19:29:41.499Z,12.81
2022-10-16T19:33:43.753Z,12.80
2022-10-16T19:37:45.199Z,12.87
2022-10-16T19:41:47.665Z,12.83
2022-10-16T19:45:49.081Z,12.80
2022-10-16T19:49:50.943Z,12.77
2022-10-16T19:54:00.926Z,12.72
2022-10-16T19:58:02.364Z,12.60
2022-10-16T20:02:03.742Z,12.45
2022-10-16T20:06:06.909Z,12.66
2022-10-16T20:10:08.691Z,12.68
2022-10-16T20:14:10.054Z,12.22
2022-10-16T20:18:11.781Z,12.15
2022-10-16T20:22:13.238Z,12.30
2022-10-16T20:26:15.236Z,12.47
2022-10-16T20:30:16.730Z,12.61
2022-10-16T20:34:18.164Z,12.12
2022-10-16T20:38:19.746Z,12.23
2022-10-16T20:42:21.161Z,12.27
2022-10-16T20:46:24.721Z,12.23
2022-10-16T20:50:30.286Z,12.35
2022-10-16T20:54:31.701Z,12.51
2022-10-16T20:58:33.131Z,12.38
2022-10-16T21:02:34.541Z,11.81
2022-10-16T21:06:38.150Z,12.12
2022-10-16T21:10:39.517Z,12.25
2022-10-16T21:14:46.458Z,12.10
2022-10-16T21:18:58.246Z,12.47
2022-10-16T21:23:02.631Z,12.38
2022-10-16T21:27:04.240Z,12.30
2022-10-16T21:31:18.956Z,12.61
2022-10-16T21:35:20.407Z,12.10
2022-10-16T21:39:21.947Z,12.53
2022-10-16T21:43:23.316Z,12.10
2022-10-16T21:47:24.871Z,12.25
2022-10-16T21:51:38.029Z,12.24
2022-10-16T21:55:39.437Z,12.34
2022-10-16T21:59:40.841Z,12.32
2022-10-16T22:03:43.185Z,12.36
2022-10-16T22:07:44.593Z,12.66
2022-10-16T22:11:46.079Z,12.34
2022-10-16T22:15:53.332Z,12.10
2022-10-16T22:19:54.796Z,12.35
2022-10-16T22:23:56.408Z,12.59
2022-10-16T22:27:57.778Z,12.09
2022-10-16T22:31:59.197Z,12.45
2022-10-16T22:36:01.727Z,12.27
2022-10-16T22:40:03.183Z,12.08
2022-10-16T22:44:04.747Z,12.16
2022-10-16T22:48:06.360Z,12.34
2022-10-16T22:52:07.746Z,12.27
2022-10-16T22:56:10.873Z,12.22
2022-10-16T23:00:16.875Z,12.20
2022-10-16T23:04:18.297Z,12.41
2022-10-16T23:08:19.785Z,12.30
2022-10-16T23:12:23.364Z,12.30
2022-10-16T23:16:25.355Z,12.46
2022-10-16T23:20:26.798Z,12.57
2022-10-16T23:24:30.695Z,12.38
2022-10-16T23:28:32.302Z,12.37
2022-10-16T23:32:34.560Z,12.24
2022-10-16T23:36:35.956Z,12.32
2022-10-16T23:40:37.379Z,12.22
2022-10-16T23:44:38.791Z,12.61
2022-10-16T23:48:40.460Z,12.37
2022-10-16T23:52:41.849Z,12.62
2022-10-16T23:56:43.242Z,12.83
